createdAt,value
2023-01-31T00:00:41.999Z,6.14
2023-01-31T00:01:41.994Z,6.16
2023-01-31T00:02:42.024Z,6.12
2023-01-31T00:03:42.038Z,6.11
2023-01-31T00:04:41.951Z,6.12
2023-01-31T00:05:41.932Z,6.14
2023-01-31T00:06:41.938Z,6.16
2023-01-31T00:07:41.987Z,6.12
2023-01-31T00:08:41.906Z,6.05
2023-01-31T00:09:41.894Z,6.17
2023-01-31T00:10:41.881Z,6.20
2023-01-31T00:11:41.888Z,6.09
2023-01-31T00:12:41.881Z,6.08
2023-01-31T00:13:41.852Z,6.04
2023-01-31T00:14:41.831Z,5.97
2023-01-31T00:15:41.849Z,6.02
2023-01-31T00:16:41.835Z,5.99
2023-01-31T00:17:41.822Z,6.02
2023-01-31T00:18:41.818Z,5.97
2023-01-31T00:19:41.813Z,6.05
2023-01-31T00:20:41.797Z,6.02
2023-01-31T00:21:41.756Z,5.89
2023-01-31T00:22:41.753Z,5.98
2023-01-31T00:23:41.733Z,5.87
2023-01-31T00:24:41.737Z,5.93
2023-01-31T00:25:41.711Z,6.01
2023-01-31T00:26:41.724Z,5.84
2023-01-31T00:27:41.695Z,5.91
2023-01-31T00:28:41.710Z,5.82
2023-01-31T00:29:41.678Z,5.93
2023-01-31T00:30:41.663Z,5.83
2023-01-31T00:31:41.765Z,5.91
2023-01-31T00:32:41.661Z,5.89
2023-01-31T00:33:41.634Z,5.94
2023-01-31T00:34:41.652Z,5.94
2023-01-31T00:35:41.618Z,5.93
2023-01-31T00:36:41.597Z,5.90
2023-01-31T00:37:41.578Z,5.94
2023-01-31T00:38:41.570Z,5.90
2023-01-31T00:39:41.568Z,5.94
2023-01-31T00:40:41.587Z,5.93
2023-01-31T00:41:41.551Z,5.94
2023-01-31T00:42:41.528Z,5.94
2023-01-31T00:43:41.528Z,5.82
2023-01-31T00:44:41.505Z,5.83
2023-01-31T00:45:41.507Z,5.87
2023-01-31T00:46:41.563Z,5.86
2023-01-31T00:47:41.469Z,5.89
2023-01-31T00:48:41.482Z,5.84
2023-01-31T00:49:41.460Z,5.89
2023-01-31T00:50:41.446Z,5.84
2023-01-31T00:51:41.446Z,5.82
2023-01-31T00:52:41.452Z,5.82
2023-01-31T00:53:41.434Z,5.79
2023-01-31T00:54:41.403Z,5.82
2023-01-31T00:55:41.414Z,5.89
2023-01-31T00:56:41.437Z,5.93
2023-01-31T00:57:41.377Z,5.93
2023-01-31T00:58:41.354Z,5.89
2023-01-31T00:59:41.375Z,5.99
2023-01-31T01:00:41.401Z,6.05
2023-01-31T01:01:41.353Z,5.98
2023-01-31T01:02:41.335Z,5.94
2023-01-31T01:03:41.317Z,5.98
2023-01-31T01:04:41.318Z,6.05
2023-01-31T01:05:41.284Z,6.04
2023-01-31T01:06:41.292Z,6.05
2023-01-31T01:07:41.279Z,6.05
2023-01-31T01:08:41.259Z,6.14
2023-01-31T01:09:41.244Z,6.11
2023-01-31T01:10:41.237Z,6.17
2023-01-31T01:11:41.222Z,6.08
2023-01-31T01:12:41.288Z,6.09
2023-01-31T01:13:41.207Z,6.11
2023-01-31T01:14:41.200Z,6.20
2023-01-31T01:15:41.189Z,6.24
2023-01-31T01:16:41.244Z,6.28
2023-01-31T01:17:41.151Z,6.26
2023-01-31T01:18:41.171Z,6.24
2023-01-31T01:19:41.136Z,6.28
2023-01-31T01:20:41.138Z,6.31
2023-01-31T01:21:41.125Z,6.30
2023-01-31T01:22:41.111Z,6.41
2023-01-31T01:23:41.099Z,6.22
2023-01-31T01:24:41.096Z,6.28
2023-01-31T01:25:41.073Z,6.24
2023-01-31T01:26:41.297Z,6.30
2023-01-31T01:27:41.053Z,6.28
2023-01-31T01:28:41.040Z,6.27
2023-01-31T01:29:41.046Z,6.35
2023-01-31T01:30:41.016Z,6.30
2023-01-31T01:31:41.110Z,6.27
2023-01-31T01:32:41.044Z,6.39
2023-01-31T01:33:40.999Z,6.35
2023-01-31T01:34:40.976Z,6.44
2023-01-31T01:35:40.988Z,6.36
2023-01-31T01:36:40.984Z,6.42
2023-01-31T01:37:41.045Z,6.35
2023-01-31T01:38:40.960Z,6.26
2023-01-31T01:39:40.935Z,6.31
2023-01-31T01:40:40.911Z,6.24
2023-01-31T01:41:40.918Z,6.38
2023-01-31T01:42:40.889Z,6.26
2023-01-31T01:43:40.888Z,6.28
2023-01-31T01:44:40.882Z,6.27
2023-01-31T01:45:40.979Z,6.08
2023-01-31T01:46:40.859Z,6.11
2023-01-31T01:47:40.858Z,6.19
2023-01-31T01:48:40.846Z,6.16
2023-01-31T01:49:40.823Z,6.14
2023-01-31T01:50:40.831Z,6.16
2023-01-31T01:51:40.802Z,6.26
2023-01-31T01:52:40.822Z,6.30
2023-01-31T01:53:40.784Z,6.27
2023-01-31T01:54:40.787Z,6.27
2023-01-31T01:55:40.761Z,6.26
2023-01-31T01:56:40.743Z,6.41
2023-01-31T01:57:40.741Z,6.26
2023-01-31T01:58:40.723Z,6.24
2023-01-31T01:59:40.714Z,6.33
2023-01-31T02:00:40.834Z,6.28
2023-01-31T02:01:40.717Z,6.33
2023-01-31T02:02:40.750Z,6.26
2023-01-31T02:03:40.678Z,6.33
2023-01-31T02:04:40.678Z,6.27
2023-01-31T02:05:40.656Z,6.33
2023-01-31T02:06:40.632Z,6.24
2023-01-31T02:07:41.866Z,6.26
2023-01-31T02:08:40.640Z,6.26
2023-01-31T02:09:40.630Z,6.27
2023-01-31T02:10:40.596Z,6.27
2023-01-31T02:11:40.600Z,6.22
2023-01-31T02:12:40.577Z,6.22
2023-01-31T02:13:40.558Z,6.17
2023-01-31T02:14:40.560Z,6.17
2023-01-31T02:15:40.566Z,6.22
2023-01-31T02:16:40.575Z,6.26
2023-01-31T02:17:40.521Z,6.24
2023-01-31T02:18:40.515Z,6.27
2023-01-31T02:19:40.515Z,6.28
2023-01-31T02:20:40.496Z,6.26
2023-01-31T02:21:40.478Z,6.27
2023-01-31T02:22:40.464Z,6.16
2023-01-31T02:23:40.484Z,6.17
2023-01-31T02:24:40.468Z,6.31
2023-01-31T02:25:40.432Z,6.26
2023-01-31T02:26:40.464Z,6.26
2023-01-31T02:27:40.410Z,6.26
2023-01-31T02:28:40.408Z,6.27
2023-01-31T02:29:40.416Z,6.24
2023-01-31T02:30:40.408Z,6.30
2023-01-31T02:31:40.431Z,6.30
2023-01-31T02:32:40.371Z,6.24
2023-01-31T02:33:40.350Z,6.26
2023-01-31T02:34:40.349Z,6.35
2023-01-31T02:35:40.371Z,6.33
2023-01-31T02:36:40.317Z,6.42
2023-01-31T02:37:40.324Z,6.39
2023-01-31T02:38:40.304Z,6.39
2023-01-31T02:39:40.291Z,6.31
2023-01-31T02:40:40.303Z,6.35
2023-01-31T02:41:40.269Z,6.38
2023-01-31T02:42:40.264Z,6.35
2023-01-31T02:43:40.249Z,6.31
2023-01-31T02:44:40.254Z,6.30
2023-01-31T02:45:40.303Z,6.26
2023-01-31T02:46:40.215Z,6.28
2023-01-31T02:47:40.197Z,6.30
2023-01-31T02:48:40.202Z,6.22
2023-01-31T02:49:40.181Z,6.22
2023-01-31T02:50:40.183Z,6.22
2023-01-31T02:51:40.165Z,6.17
2023-01-31T02:52:40.151Z,6.12
2023-01-31T02:53:40.142Z,6.17
2023-01-31T02:54:40.134Z,6.20
2023-01-31T02:55:40.128Z,6.16
2023-01-31T02:56:40.118Z,6.17
2023-01-31T02:57:40.096Z,6.05
2023-01-31T02:58:40.090Z,6.01
2023-01-31T02:59:40.074Z,6.02
2023-01-31T03:00:40.094Z,5.98
2023-01-31T03:01:40.153Z,5.98
2023-01-31T03:02:40.139Z,5.91
2023-01-31T03:03:40.038Z,5.91
2023-01-31T03:04:40.044Z,5.90
2023-01-31T03:05:40.008Z,5.87
2023-01-31T03:06:40.035Z,5.87
2023-01-31T03:07:40.017Z,5.80
2023-01-31T03:08:39.976Z,5.83
2023-01-31T03:09:40.006Z,5.82
2023-01-31T03:10:39.964Z,5.87
2023-01-31T03:11:39.965Z,5.89
2023-01-31T03:12:39.969Z,5.75
2023-01-31T03:13:39.974Z,5.76
2023-01-31T03:14:39.978Z,5.72
2023-01-31T03:15:39.934Z,5.71
2023-01-31T03:16:39.992Z,5.71
2023-01-31T03:17:39.888Z,5.71
2023-01-31T03:18:39.888Z,5.69
2023-01-31T03:19:39.859Z,5.62
2023-01-31T03:20:39.859Z,5.56
2023-01-31T03:21:39.870Z,5.51
2023-01-31T03:22:39.890Z,5.57
2023-01-31T03:23:39.875Z,5.54
2023-01-31T03:24:39.821Z,5.59
2023-01-31T03:25:39.820Z,5.57
2023-01-31T03:26:39.877Z,5.57
2023-01-31T03:27:39.812Z,5.57
2023-01-31T03:28:39.799Z,5.61
2023-01-31T03:29:39.753Z,5.65
2023-01-31T03:30:39.926Z,5.53
2023-01-31T03:31:39.943Z,5.54
2023-01-31T03:32:39.802Z,5.56
2023-01-31T03:33:39.783Z,5.51
2023-01-31T03:34:39.709Z,5.51
2023-01-31T03:35:39.687Z,5.57
2023-01-31T03:36:39.682Z,5.61
2023-01-31T03:37:39.686Z,5.47
2023-01-31T03:38:39.666Z,5.47
2023-01-31T03:39:39.717Z,5.61
2023-01-31T03:40:39.642Z,5.53
2023-01-31T03:41:40.176Z,5.50
2023-01-31T03:42:39.624Z,5.47
2023-01-31T03:43:39.632Z,5.47
2023-01-31T03:44:39.663Z,5.46
2023-01-31T03:45:39.583Z,5.41
2023-01-31T03:46:39.638Z,5.44
2023-01-31T03:47:39.576Z,5.47
2023-01-31T03:48:39.599Z,5.39
2023-01-31T03:49:39.572Z,5.39
2023-01-31T03:50:39.530Z,5.36
2023-01-31T03:51:39.574Z,5.33
2023-01-31T03:52:39.504Z,5.35
2023-01-31T03:53:39.520Z,5.35
2023-01-31T03:54:39.510Z,5.38
2023-01-31T03:55:39.483Z,5.38
2023-01-31T03:56:39.467Z,5.32
2023-01-31T03:57:39.451Z,5.36
2023-01-31T03:58:39.461Z,5.43
2023-01-31T03:59:39.507Z,5.43
2023-01-31T04:00:39.458Z,5.44
2023-01-31T04:01:39.490Z,5.35
2023-01-31T04:02:39.464Z,5.35
2023-01-31T04:03:39.400Z,5.29
2023-01-31T04:04:39.389Z,5.35
2023-01-31T04:05:39.373Z,5.23
2023-01-31T04:06:39.355Z,5.33
2023-01-31T04:07:39.403Z,5.30
2023-01-31T04:08:39.345Z,5.23
2023-01-31T04:09:39.337Z,5.33
2023-01-31T04:10:39.315Z,5.33
2023-01-31T04:11:39.305Z,5.29
2023-01-31T04:12:39.298Z,5.33
2023-01-31T04:13:39.303Z,5.33
2023-01-31T04:14:39.282Z,5.32
2023-01-31T04:15:39.381Z,5.32
2023-01-31T04:16:39.272Z,5.39
2023-01-31T04:17:39.266Z,5.35
2023-01-31T04:18:39.235Z,5.38
2023-01-31T04:19:39.236Z,5.36
2023-01-31T04:20:39.229Z,5.36
2023-01-31T04:21:39.197Z,5.39
2023-01-31T04:22:39.196Z,5.36
2023-01-31T04:23:39.201Z,5.35
2023-01-31T04:24:39.167Z,5.36
2023-01-31T04:25:39.182Z,5.38
2023-01-31T04:26:39.219Z,5.43
2023-01-31T04:27:39.153Z,5.38
2023-01-31T04:28:39.128Z,5.38
2023-01-31T04:29:39.125Z,5.44
2023-01-31T04:30:39.112Z,5.33
2023-01-31T04:31:39.146Z,5.36
2023-01-31T04:32:39.104Z,5.32
2023-01-31T04:33:39.069Z,5.17
2023-01-31T04:34:39.082Z,5.33
2023-01-31T04:35:39.054Z,5.35
2023-01-31T04:36:39.037Z,5.39
2023-01-31T04:37:39.026Z,5.29
2023-01-31T04:38:39.016Z,5.30
2023-01-31T04:39:39.016Z,5.28
2023-01-31T04:40:39.014Z,5.32
2023-01-31T04:41:38.984Z,5.33
2023-01-31T04:42:38.981Z,5.23
2023-01-31T04:43:38.969Z,5.32
2023-01-31T04:44:38.965Z,5.33
2023-01-31T04:45:38.961Z,5.23
2023-01-31T04:46:38.992Z,5.26
2023-01-31T04:47:38.982Z,5.28
2023-01-31T04:48:38.944Z,5.30
2023-01-31T04:49:38.905Z,5.25
2023-01-31T04:50:38.905Z,5.26
2023-01-31T04:51:38.875Z,5.18
2023-01-31T04:52:38.876Z,5.18
2023-01-31T04:53:38.883Z,5.17
2023-01-31T04:54:38.862Z,5.20
2023-01-31T04:55:38.858Z,5.18
2023-01-31T04:56:38.843Z,5.18
2023-01-31T04:57:38.814Z,5.21
2023-01-31T04:58:38.871Z,5.10
2023-01-31T04:59:38.820Z,5.08
2023-01-31T05:00:38.853Z,5.17
2023-01-31T05:01:38.823Z,5.15
2023-01-31T05:02:38.806Z,5.12
2023-01-31T05:03:38.755Z,5.17
2023-01-31T05:04:38.767Z,5.15
2023-01-31T05:05:38.774Z,5.14
2023-01-31T05:06:38.717Z,5.15
2023-01-31T05:07:38.717Z,5.10
2023-01-31T05:08:38.699Z,5.11
2023-01-31T05:09:38.685Z,5.11
2023-01-31T05:10:38.681Z,5.10
2023-01-31T05:11:38.662Z,5.08
2023-01-31T05:12:38.682Z,5.15
2023-01-31T05:13:38.652Z,5.11
2023-01-31T05:14:38.634Z,5.14
2023-01-31T05:15:38.627Z,5.15
2023-01-31T05:16:38.641Z,5.26
2023-01-31T05:17:38.607Z,5.26
2023-01-31T05:18:38.597Z,5.25
2023-01-31T05:19:38.588Z,5.20
2023-01-31T05:20:38.613Z,5.26
2023-01-31T05:21:38.578Z,5.28
2023-01-31T05:22:38.553Z,5.29
2023-01-31T05:23:38.548Z,5.25
2023-01-31T05:24:38.537Z,5.26
2023-01-31T05:25:38.526Z,5.23
2023-01-31T05:26:38.640Z,5.32
2023-01-31T05:27:38.498Z,5.32
2023-01-31T05:28:38.496Z,5.33
2023-01-31T05:29:38.474Z,5.23
2023-01-31T05:30:38.479Z,5.18
2023-01-31T05:31:38.478Z,5.21
2023-01-31T05:32:38.460Z,5.23
2023-01-31T05:33:38.437Z,5.28
2023-01-31T05:34:38.425Z,5.28
2023-01-31T05:35:38.409Z,5.23
2023-01-31T05:36:38.437Z,5.33
2023-01-31T05:37:38.399Z,5.33
2023-01-31T05:38:38.370Z,5.32
2023-01-31T05:39:38.394Z,5.38
2023-01-31T05:40:38.367Z,5.36
2023-01-31T05:41:38.365Z,5.36
2023-01-31T05:42:38.343Z,5.47
2023-01-31T05:43:38.349Z,5.41
2023-01-31T05:44:38.320Z,5.50
2023-01-31T05:45:38.322Z,5.44
2023-01-31T05:46:38.297Z,5.50
2023-01-31T05:47:38.289Z,5.43
2023-01-31T05:48:38.278Z,5.46
2023-01-31T05:49:38.272Z,5.47
2023-01-31T05:50:38.254Z,5.50
2023-01-31T05:51:38.235Z,5.57
2023-01-31T05:52:38.255Z,5.54
2023-01-31T05:53:38.390Z,5.56
2023-01-31T05:54:38.274Z,5.62
2023-01-31T05:55:38.206Z,5.57
2023-01-31T05:56:38.184Z,5.61
2023-01-31T05:57:38.176Z,5.50
2023-01-31T05:58:38.265Z,5.59
2023-01-31T05:59:38.185Z,5.61
2023-01-31T06:00:38.151Z,5.56
2023-01-31T06:01:38.141Z,5.47
2023-01-31T06:02:38.133Z,5.64
2023-01-31T06:03:38.157Z,5.57
2023-01-31T06:04:38.108Z,5.57
2023-01-31T06:05:44.696Z,5.56
2023-01-31T06:06:38.278Z,5.59
2023-01-31T06:07:38.075Z,5.68
2023-01-31T06:08:38.081Z,5.65
2023-01-31T06:09:38.055Z,5.57
2023-01-31T06:10:38.030Z,5.59
2023-01-31T06:11:38.031Z,5.61
2023-01-31T06:12:38.024Z,5.50
2023-01-31T06:13:38.010Z,5.57
2023-01-31T06:14:38.008Z,5.54
2023-01-31T06:16:00.809Z,5.56
2023-01-31T06:16:37.994Z,5.64
2023-01-31T06:17:37.967Z,5.66
2023-01-31T06:18:37.959Z,5.64
2023-01-31T06:19:37.950Z,5.69
2023-01-31T06:20:37.963Z,5.73
2023-01-31T06:21:37.921Z,5.76
2023-01-31T06:22:37.936Z,5.76
2023-01-31T06:23:37.907Z,5.72
2023-01-31T06:24:37.905Z,5.76
2023-01-31T06:25:37.882Z,5.79
2023-01-31T06:26:37.947Z,5.72
2023-01-31T06:27:37.881Z,5.76
2023-01-31T06:28:37.841Z,5.75
2023-01-31T06:29:37.838Z,5.75
2023-01-31T06:30:38.012Z,5.73
2023-01-31T06:31:37.901Z,5.75
2023-01-31T06:32:37.797Z,5.76
2023-01-31T06:33:45.906Z,5.75
2023-01-31T06:34:38.775Z,5.72
2023-01-31T06:35:37.767Z,5.76
2023-01-31T06:36:37.776Z,5.71
2023-01-31T06:37:37.759Z,5.65
2023-01-31T06:38:37.734Z,5.68
2023-01-31T06:39:37.740Z,5.68
2023-01-31T06:40:37.742Z,5.64
2023-01-31T06:41:37.715Z,5.57
2023-01-31T06:42:37.701Z,5.59
2023-01-31T06:43:37.692Z,5.54
2023-01-31T06:44:37.685Z,5.47
2023-01-31T06:45:37.657Z,5.50
2023-01-31T06:46:37.677Z,5.44
2023-01-31T06:47:37.640Z,5.56
2023-01-31T06:48:37.641Z,5.57
2023-01-31T06:49:37.671Z,5.56
2023-01-31T06:50:37.614Z,5.59
2023-01-31T06:51:37.614Z,5.64
2023-01-31T06:52:37.597Z,5.68
2023-01-31T06:53:37.581Z,5.66
2023-01-31T06:54:37.574Z,5.65
2023-01-31T06:55:37.557Z,5.61
2023-01-31T06:56:37.565Z,5.75
2023-01-31T06:57:37.592Z,5.62
2023-01-31T06:58:37.532Z,5.71
2023-01-31T06:59:37.532Z,5.61
2023-01-31T07:00:37.507Z,5.71
2023-01-31T07:01:37.738Z,5.71
2023-01-31T07:02:37.486Z,5.69
2023-01-31T07:03:37.478Z,5.72
2023-01-31T07:04:37.510Z,5.79
2023-01-31T07:05:37.444Z,5.73
2023-01-31T07:06:37.437Z,5.84
2023-01-31T07:07:37.435Z,5.80
2023-01-31T07:08:37.425Z,5.87
2023-01-31T07:09:37.420Z,5.86
2023-01-31T07:10:37.390Z,5.80
2023-01-31T07:11:37.387Z,5.82
2023-01-31T07:12:37.405Z,5.83
2023-01-31T07:13:37.358Z,5.72
2023-01-31T07:14:37.388Z,5.69
2023-01-31T07:15:37.353Z,5.61
2023-01-31T07:16:37.329Z,5.57
2023-01-31T07:17:37.315Z,5.54
2023-01-31T07:18:37.327Z,5.64
2023-01-31T07:19:37.747Z,5.56
2023-01-31T07:20:37.290Z,5.61
2023-01-31T07:21:37.280Z,5.64
2023-01-31T07:22:37.267Z,5.65
2023-01-31T07:23:37.264Z,5.71
2023-01-31T07:24:37.275Z,5.75
2023-01-31T07:25:37.251Z,5.79
2023-01-31T07:26:37.284Z,5.71
2023-01-31T07:27:37.219Z,5.71
2023-01-31T07:28:37.230Z,5.72
2023-01-31T07:29:38.430Z,5.72
2023-01-31T07:30:37.223Z,5.80
2023-01-31T07:31:37.249Z,5.76
2023-01-31T07:32:37.166Z,5.79
2023-01-31T07:33:37.158Z,5.75
2023-01-31T07:34:37.151Z,5.75
2023-01-31T07:35:37.150Z,5.82
2023-01-31T07:36:37.119Z,5.83
2023-01-31T07:37:37.105Z,5.68
2023-01-31T07:38:37.104Z,5.72
2023-01-31T07:39:37.091Z,5.69
2023-01-31T07:40:37.100Z,5.64
2023-01-31T07:41:37.077Z,5.68
2023-01-31T07:42:37.060Z,5.72
2023-01-31T07:43:37.061Z,5.76
2023-01-31T07:44:37.061Z,5.75
2023-01-31T07:45:38.607Z,5.79
2023-01-31T07:46:37.017Z,5.84
2023-01-31T07:47:37.007Z,5.82
2023-01-31T07:48:36.989Z,5.90
2023-01-31T07:49:36.992Z,5.79
2023-01-31T07:50:36.966Z,5.83
2023-01-31T07:51:36.983Z,5.79
2023-01-31T07:52:36.958Z,5.80
2023-01-31T07:53:37.662Z,5.84
2023-01-31T07:54:36.939Z,5.75
2023-01-31T07:55:36.932Z,5.82
2023-01-31T07:56:36.925Z,5.82
2023-01-31T07:57:36.911Z,5.79
2023-01-31T07:58:36.913Z,5.76
2023-01-31T07:59:36.895Z,5.84
2023-01-31T08:00:36.876Z,5.86
2023-01-31T08:01:36.917Z,5.82
2023-01-31T08:02:36.870Z,5.83
2023-01-31T08:03:36.829Z,5.80
2023-01-31T08:04:36.871Z,5.99
2023-01-31T08:05:36.813Z,5.94
2023-01-31T08:06:36.822Z,5.89
2023-01-31T08:07:36.788Z,5.89
2023-01-31T08:08:36.773Z,5.93
2023-01-31T08:09:36.785Z,5.94
2023-01-31T08:10:36.757Z,6.02
2023-01-31T08:11:36.752Z,6.04
2023-01-31T08:12:36.741Z,6.05
2023-01-31T08:13:36.731Z,6.07
2023-01-31T08:14:36.735Z,6.05
2023-01-31T08:15:36.712Z,6.02
2023-01-31T08:16:36.715Z,6.02
2023-01-31T08:17:36.718Z,6.04
2023-01-31T08:18:36.677Z,6.07
2023-01-31T08:19:36.673Z,6.01
2023-01-31T08:20:36.682Z,6.05
2023-01-31T08:21:36.643Z,6.08
2023-01-31T08:22:36.651Z,6.11
2023-01-31T08:23:36.632Z,6.07
2023-01-31T08:24:36.613Z,6.04
2023-01-31T08:25:36.592Z,6.04
2023-01-31T08:26:36.679Z,5.99
2023-01-31T08:27:36.605Z,6.16
2023-01-31T08:28:36.571Z,6.17
2023-01-31T08:29:36.563Z,6.11
2023-01-31T08:30:36.585Z,6.16
2023-01-31T08:31:36.640Z,6.20
2023-01-31T08:32:36.545Z,6.24
2023-01-31T08:33:36.519Z,6.26
2023-01-31T08:34:36.513Z,6.27
2023-01-31T08:35:36.501Z,6.24
2023-01-31T08:36:36.519Z,6.26
2023-01-31T08:37:36.495Z,6.26
2023-01-31T08:38:36.494Z,6.20
2023-01-31T08:39:36.480Z,6.09
2023-01-31T08:40:36.487Z,6.28
2023-01-31T08:41:36.434Z,6.12
2023-01-31T08:42:36.443Z,6.12
2023-01-31T08:43:53.816Z,6.14
2023-01-31T08:44:37.395Z,6.05
2023-01-31T08:45:36.392Z,6.04
2023-01-31T08:46:36.507Z,6.08
2023-01-31T08:47:36.365Z,6.11
2023-01-31T08:48:36.384Z,6.16
2023-01-31T08:49:36.383Z,6.14
2023-01-31T08:50:36.347Z,6.27
2023-01-31T08:51:36.335Z,6.19
2023-01-31T08:52:36.314Z,6.16
2023-01-31T08:53:36.311Z,6.14
2023-01-31T08:54:36.314Z,6.14
2023-01-31T08:55:36.289Z,6.22
2023-01-31T08:56:36.297Z,6.12
2023-01-31T08:57:43.161Z,6.22
2023-01-31T08:58:37.248Z,6.28
2023-01-31T08:59:36.269Z,6.28
2023-01-31T09:00:36.240Z,6.22
2023-01-31T09:01:36.247Z,6.22
2023-01-31T09:02:36.245Z,6.16
2023-01-31T09:03:36.199Z,6.14
2023-01-31T09:04:36.220Z,6.16
2023-01-31T09:05:36.183Z,6.09
2023-01-31T09:06:36.184Z,6.16
2023-01-31T09:07:36.154Z,6.17
2023-01-31T09:08:36.162Z,6.22
2023-01-31T09:09:36.168Z,6.26
2023-01-31T09:10:36.153Z,6.17
2023-01-31T09:11:36.161Z,6.22
2023-01-31T09:12:36.105Z,6.20
2023-01-31T09:13:36.137Z,6.20
2023-01-31T09:14:36.098Z,6.27
2023-01-31T09:15:36.072Z,6.22
2023-01-31T09:16:36.088Z,6.08
2023-01-31T09:17:36.055Z,6.24
2023-01-31T09:18:36.051Z,6.19
2023-01-31T09:19:36.054Z,6.14
2023-01-31T09:20:36.043Z,6.09
2023-01-31T09:21:36.012Z,6.14
2023-01-31T09:22:35.994Z,6.14
2023-01-31T09:23:35.996Z,6.16
2023-01-31T09:24:35.989Z,6.19
2023-01-31T09:25:45.739Z,6.08
2023-01-31T09:26:36.977Z,6.19
2023-01-31T09:27:35.952Z,6.14
2023-01-31T09:28:35.959Z,6.20
2023-01-31T09:29:35.931Z,6.24
2023-01-31T09:30:35.960Z,6.24
2023-01-31T09:31:35.961Z,6.38
2023-01-31T09:32:35.907Z,6.38
2023-01-31T09:33:35.894Z,6.38
2023-01-31T09:34:35.877Z,6.45
2023-01-31T09:35:35.860Z,6.48
2023-01-31T09:36:35.868Z,6.44
2023-01-31T09:37:35.848Z,6.45
2023-01-31T09:38:35.849Z,6.36
2023-01-31T09:39:35.823Z,6.41
2023-01-31T09:40:36.481Z,6.46
2023-01-31T09:41:36.362Z,6.48
2023-01-31T09:42:36.061Z,6.54
2023-01-31T09:43:36.122Z,6.51
2023-01-31T09:44:36.080Z,6.57
2023-01-31T09:45:35.950Z,6.57
2023-01-31T09:46:35.766Z,6.57
2023-01-31T09:47:35.737Z,6.57
2023-01-31T09:48:35.731Z,6.70
2023-01-31T09:49:35.713Z,6.57
2023-01-31T09:50:35.706Z,6.69
2023-01-31T09:51:35.718Z,6.72
2023-01-31T09:52:35.698Z,6.60
2023-01-31T09:53:36.394Z,6.62
2023-01-31T09:54:36.391Z,6.67
2023-01-31T09:55:36.108Z,6.72
2023-01-31T09:56:35.650Z,6.74
2023-01-31T09:57:35.965Z,6.63
2023-01-31T09:58:35.616Z,6.70
2023-01-31T09:59:35.640Z,6.77
2023-01-31T10:00:35.586Z,6.75
2023-01-31T10:01:36.182Z,6.77
2023-01-31T10:02:35.575Z,6.63
2023-01-31T10:03:35.595Z,6.64
2023-01-31T10:04:35.546Z,6.75
2023-01-31T10:05:35.556Z,6.69
2023-01-31T10:06:35.543Z,6.60
2023-01-31T10:07:36.069Z,6.64
2023-01-31T10:08:36.095Z,6.63
2023-01-31T10:09:35.985Z,6.75
2023-01-31T10:10:35.502Z,6.72
2023-01-31T10:11:36.631Z,6.75
2023-01-31T10:12:35.467Z,6.70
2023-01-31T10:13:35.486Z,6.72
2023-01-31T10:14:35.445Z,6.75
2023-01-31T10:15:35.444Z,6.77
2023-01-31T10:16:35.416Z,6.70
2023-01-31T10:17:35.436Z,6.75
2023-01-31T10:18:35.397Z,6.72
2023-01-31T10:19:35.395Z,6.78
2023-01-31T10:20:35.384Z,6.66
2023-01-31T10:21:35.380Z,6.79
2023-01-31T10:22:35.348Z,6.85
2023-01-31T10:23:35.350Z,6.81
2023-01-31T10:24:35.355Z,6.77
2023-01-31T10:25:35.332Z,6.78
2023-01-31T10:26:35.324Z,6.82
2023-01-31T10:27:35.316Z,6.77
2023-01-31T10:28:35.304Z,6.82
2023-01-31T10:29:35.277Z,6.74
2023-01-31T10:30:35.285Z,6.70
2023-01-31T10:31:35.316Z,6.74
2023-01-31T10:32:35.269Z,6.77
2023-01-31T10:33:35.237Z,6.72
2023-01-31T10:34:35.227Z,6.62
2023-01-31T10:35:35.224Z,6.77
2023-01-31T10:36:35.213Z,6.70
2023-01-31T10:37:35.192Z,6.63
2023-01-31T10:38:35.195Z,6.70
2023-01-31T10:39:35.197Z,6.54
2023-01-31T10:40:35.184Z,6.59
2023-01-31T10:41:35.142Z,6.49
2023-01-31T10:42:35.156Z,6.51
2023-01-31T10:43:35.124Z,6.49
2023-01-31T10:44:35.131Z,6.54
2023-01-31T10:45:35.182Z,6.56
2023-01-31T10:46:35.092Z,6.57
2023-01-31T10:47:35.081Z,6.59
2023-01-31T10:48:35.065Z,6.59
2023-01-31T10:49:35.083Z,6.72
2023-01-31T10:50:35.056Z,6.74
2023-01-31T10:51:35.045Z,6.78
2023-01-31T10:52:35.032Z,6.81
2023-01-31T10:53:35.012Z,6.77
2023-01-31T10:54:35.013Z,6.77
2023-01-31T10:55:35.029Z,6.75
2023-01-31T10:56:35.710Z,6.81
2023-01-31T10:57:35.441Z,6.84
2023-01-31T10:58:35.351Z,6.77
2023-01-31T10:59:34.956Z,6.79
2023-01-31T11:00:34.945Z,6.78
2023-01-31T11:01:34.954Z,6.72
2023-01-31T11:02:35.106Z,6.75
2023-01-31T11:03:34.917Z,6.69
2023-01-31T11:04:34.901Z,6.72
2023-01-31T11:05:34.881Z,6.75
2023-01-31T11:06:34.884Z,6.81
2023-01-31T11:07:34.890Z,6.78
2023-01-31T11:08:34.859Z,6.81
2023-01-31T11:09:34.865Z,6.85
2023-01-31T11:10:34.864Z,6.84
2023-01-31T11:11:34.838Z,6.92
2023-01-31T11:12:34.868Z,6.93
2023-01-31T11:13:34.810Z,6.97
2023-01-31T11:14:34.794Z,6.82
2023-01-31T11:15:34.796Z,6.95
2023-01-31T11:16:34.866Z,6.92
2023-01-31T11:17:34.791Z,6.93
2023-01-31T11:18:34.763Z,6.85
2023-01-31T11:19:34.739Z,6.79
2023-01-31T11:20:34.751Z,6.81
2023-01-31T11:21:34.731Z,6.79
2023-01-31T11:22:34.699Z,6.75
2023-01-31T11:23:34.693Z,6.82
2023-01-31T11:24:34.698Z,6.84
2023-01-31T11:25:34.683Z,6.82
2023-01-31T11:26:34.756Z,6.87
2023-01-31T11:27:34.657Z,6.79
2023-01-31T11:28:34.675Z,6.75
2023-01-31T11:29:34.650Z,6.75
2023-01-31T11:30:34.695Z,6.75
2023-01-31T11:31:34.648Z,6.69
2023-01-31T11:32:34.602Z,6.60
2023-01-31T11:33:34.595Z,6.75
2023-01-31T11:34:34.605Z,6.67
2023-01-31T11:35:34.560Z,6.75
2023-01-31T11:36:34.564Z,6.70
2023-01-31T11:37:34.990Z,6.67
2023-01-31T11:38:34.536Z,6.72
2023-01-31T11:39:34.552Z,6.66
2023-01-31T11:40:34.512Z,6.70
2023-01-31T11:41:34.496Z,6.72
2023-01-31T11:42:34.501Z,6.81
2023-01-31T11:43:34.486Z,6.78
2023-01-31T11:44:34.485Z,6.82
2023-01-31T11:45:34.472Z,6.87
2023-01-31T11:46:34.497Z,6.81
2023-01-31T11:47:34.466Z,6.77
2023-01-31T11:48:34.428Z,6.87
2023-01-31T11:49:34.436Z,6.87
2023-01-31T11:50:34.409Z,6.82
2023-01-31T11:51:34.408Z,6.82
2023-01-31T11:52:34.375Z,6.81
2023-01-31T11:53:34.366Z,6.85
2023-01-31T11:54:34.372Z,6.88
2023-01-31T11:55:34.364Z,6.96
2023-01-31T11:56:34.346Z,6.87
2023-01-31T11:57:34.328Z,6.81
2023-01-31T11:58:34.341Z,6.82
2023-01-31T11:59:34.309Z,6.89
2023-01-31T12:00:34.323Z,6.95
2023-01-31T12:01:34.279Z,6.84
2023-01-31T12:02:34.406Z,6.88
2023-01-31T12:03:34.388Z,6.92
2023-01-31T12:04:34.275Z,6.89
2023-01-31T12:05:34.274Z,6.93
2023-01-31T12:06:34.280Z,6.92
2023-01-31T12:07:34.233Z,6.96
2023-01-31T12:08:34.221Z,6.97
2023-01-31T12:09:34.219Z,6.87
2023-01-31T12:10:34.249Z,6.93
2023-01-31T12:11:34.172Z,6.93
2023-01-31T12:12:34.173Z,6.95
2023-01-31T12:13:34.165Z,6.95
2023-01-31T12:14:34.152Z,6.95
2023-01-31T12:15:34.291Z,6.88
2023-01-31T12:16:34.243Z,6.75
2023-01-31T12:17:34.115Z,6.78
2023-01-31T12:18:34.124Z,6.66
2023-01-31T12:19:34.102Z,6.70
2023-01-31T12:20:34.094Z,6.77
2023-01-31T12:21:34.080Z,6.67
2023-01-31T12:22:34.078Z,6.67
2023-01-31T12:23:34.050Z,6.72
2023-01-31T12:24:34.035Z,6.79
2023-01-31T12:25:34.053Z,6.70
2023-01-31T12:26:34.040Z,6.60
2023-01-31T12:27:33.998Z,6.62
2023-01-31T12:28:34.002Z,6.62
2023-01-31T12:29:33.991Z,6.54
2023-01-31T12:30:34.001Z,6.52
2023-01-31T12:31:34.043Z,6.45
2023-01-31T12:32:33.966Z,6.45
2023-01-31T12:33:34.011Z,6.39
2023-01-31T12:34:33.934Z,6.36
2023-01-31T12:35:33.926Z,6.31
2023-01-31T12:36:33.928Z,6.16
2023-01-31T12:37:33.906Z,6.22
2023-01-31T12:38:33.895Z,6.22
2023-01-31T12:39:33.872Z,6.20
2023-01-31T12:40:33.880Z,6.12
2023-01-31T12:41:33.875Z,6.19
2023-01-31T12:42:33.839Z,6.17
2023-01-31T12:43:33.837Z,6.19
2023-01-31T12:44:33.828Z,6.31
2023-01-31T12:45:33.827Z,6.33
2023-01-31T12:46:33.857Z,6.08
2023-01-31T12:47:33.789Z,6.12
2023-01-31T12:48:33.803Z,6.02
2023-01-31T12:49:33.768Z,6.07
2023-01-31T12:50:33.775Z,5.99
2023-01-31T12:51:33.743Z,6.02
2023-01-31T12:52:33.771Z,6.08
2023-01-31T12:53:33.764Z,6.19
2023-01-31T12:54:33.733Z,6.02
2023-01-31T12:55:33.720Z,6.04
2023-01-31T12:56:33.714Z,6.07
2023-01-31T12:57:33.684Z,6.04
2023-01-31T12:58:33.684Z,6.04
2023-01-31T12:59:33.664Z,6.02
2023-01-31T13:00:33.685Z,5.98
2023-01-31T13:01:33.717Z,5.91
2023-01-31T13:02:33.754Z,5.97
2023-01-31T13:03:33.640Z,5.94
2023-01-31T13:04:33.635Z,5.87
2023-01-31T13:05:33.616Z,5.87
2023-01-31T13:06:33.605Z,5.91
2023-01-31T13:07:33.582Z,5.87
2023-01-31T13:08:33.575Z,5.86
2023-01-31T13:09:33.554Z,5.83
2023-01-31T13:10:33.559Z,5.83
2023-01-31T13:11:33.551Z,5.80
2023-01-31T13:12:33.527Z,5.73
2023-01-31T13:13:33.540Z,5.73
2023-01-31T13:14:33.508Z,5.72
2023-01-31T13:15:33.510Z,5.72
2023-01-31T13:16:33.484Z,5.73
2023-01-31T13:17:33.473Z,5.73
2023-01-31T13:18:33.468Z,5.80